createdAt,value
2022-11-05T00:03:11.607Z,12.73
2022-11-05T00:07:35.528Z,15.03
2022-11-05T00:11:55.063Z,11.20
2022-11-05T00:16:14.872Z,11.30
2022-11-05T00:20:15.847Z,14.93
2022-11-05T00:24:35.294Z,14.30
2022-11-05T00:28:37.719Z,14.83
2022-11-05T00:32:39.017Z,16.37
2022-11-05T00:36:39.953Z,20.60
2022-11-05T00:40:40.957Z,21.07
2022-11-05T00:45:00.594Z,22.70
2022-11-05T00:49:20.015Z,24.90
2022-11-05T00:53:20.999Z,28.23
2022-11-05T00:57:22.010Z,30.00
2022-11-05T01:01:23.336Z,31.90
2022-11-05T01:05:24.699Z,40.50
2022-11-05T01:09:25.698Z,37.87
2022-11-05T01:13:29.109Z,46.10
2022-11-05T01:17:30.108Z,37.63
2022-11-05T01:21:31.493Z,50.27
2022-11-05T01:25:32.346Z,39.00
2022-11-05T01:29:33.409Z,50.63
2022-11-05T01:33:34.318Z,47.07
2022-11-05T01:37:35.675Z,38.43
2022-11-05T01:41:36.670Z,41.10
2022-11-05T01:45:37.530Z,38.57
2022-11-05T01:49:38.463Z,51.57
2022-11-05T01:53:43.294Z,43.33
2022-11-05T01:57:44.423Z,48.37
2022-11-05T02:01:45.802Z,39.17
2022-11-05T02:05:49.098Z,43.67
2022-11-05T02:10:05.448Z,43.20
2022-11-05T02:14:06.469Z,39.07
2022-11-05T02:18:17.241Z,40.47
2022-11-05T02:22:48.992Z,42.60
2022-11-05T02:27:12.281Z,36.97
2022-11-05T02:31:35.248Z,41.28
2022-11-05T02:35:49.235Z,37.37
2022-11-05T02:40:02.805Z,33.63
2022-11-05T02:44:19.930Z,39.73
2022-11-05T02:48:24.631Z,36.33
2022-11-05T02:52:33.129Z,38.77
2022-11-05T02:56:40.689Z,44.53
2022-11-05T03:00:51.479Z,44.63
2022-11-05T03:04:52.475Z,48.50
2022-11-05T03:09:19.981Z,55.80
2022-11-05T03:13:30.385Z,47.57
2022-11-05T03:17:44.530Z,50.20
2022-11-05T03:21:58.628Z,65.13
2022-11-05T03:26:21.948Z,59.20
2022-11-05T03:30:24.575Z,58.77
2022-11-05T03:34:29.573Z,57.93
2022-11-05T03:38:34.031Z,59.63
2022-11-05T03:42:38.330Z,60.70
2022-11-05T03:46:44.569Z,66.00
2022-11-05T03:51:01.288Z,58.03
2022-11-05T03:55:03.152Z,69.97
2022-11-05T03:59:06.829Z,65.20
2022-11-05T04:03:08.041Z,66.73
2022-11-05T04:07:29.099Z,67.17
2022-11-05T04:11:50.179Z,73.80
2022-11-05T04:16:12.163Z,68.10
2022-11-05T04:20:31.657Z,63.23
2022-11-05T04:24:32.679Z,60.80
2022-11-05T04:28:52.267Z,63.53
2022-11-05T04:33:02.484Z,62.17
2022-11-05T04:37:03.765Z,63.47
2022-11-05T04:41:15.687Z,69.33
2022-11-05T04:45:16.884Z,64.37
2022-11-05T04:49:18.092Z,61.53
2022-11-05T04:53:19.160Z,70.67
2022-11-05T04:57:20.323Z,61.93
2022-11-05T05:01:23.172Z,57.97
2022-11-05T05:05:24.285Z,51.87
2022-11-05T05:09:25.488Z,53.33
2022-11-05T05:13:26.580Z,48.50
2022-11-05T05:17:27.837Z,38.47
2022-11-05T05:21:37.886Z,36.37
2022-11-05T05:25:38.880Z,40.37
2022-11-05T05:29:40.186Z,33.23
2022-11-05T05:33:41.171Z,37.53
2022-11-05T05:37:42.343Z,39.20
2022-11-05T05:41:43.475Z,35.23
2022-11-05T05:45:44.558Z,37.57
2022-11-05T05:49:45.753Z,37.77
2022-11-05T05:53:46.750Z,34.43
2022-11-05T05:57:47.874Z,33.57
2022-11-05T06:01:49.172Z,34.17
2022-11-05T06:05:50.275Z,32.80
2022-11-05T06:09:51.513Z,39.57
2022-11-05T06:13:52.680Z,37.87
2022-11-05T06:17:54.036Z,38.77
2022-11-05T06:21:55.197Z,46.63
2022-11-05T06:26:01.604Z,39.70
2022-11-05T06:30:04.586Z,37.40
2022-11-05T06:34:05.983Z,46.83
2022-11-05T06:38:07.118Z,40.40
2022-11-05T06:42:23.365Z,40.77
2022-11-05T06:46:11.913Z,43.97
2022-11-05T06:50:13.205Z,42.30
2022-11-05T06:54:14.283Z,41.53
2022-11-05T06:58:15.827Z,47.83
2022-11-05T07:02:17.718Z,39.33
2022-11-05T07:06:18.824Z,40.27
2022-11-05T07:10:19.962Z,39.50
2022-11-05T07:14:21.508Z,46.03
2022-11-05T07:18:22.781Z,38.27
2022-11-05T07:22:23.980Z,40.80
2022-11-05T07:26:30.494Z,41.37
2022-11-05T07:30:29.984Z,41.63
2022-11-05T07:34:32.055Z,41.53
2022-11-05T07:38:33.109Z,39.93
2022-11-05T07:42:34.520Z,45.30
2022-11-05T07:46:35.706Z,46.23
2022-11-05T07:50:37.123Z,43.50
2022-11-05T07:54:38.287Z,46.43
2022-11-05T07:58:39.250Z,53.00
2022-11-05T08:02:41.957Z,39.60
2022-11-05T08:06:43.526Z,39.27
2022-11-05T08:10:45.259Z,36.20
2022-11-05T08:14:46.276Z,38.97
2022-11-05T08:18:48.081Z,34.77
2022-11-05T08:22:48.964Z,38.43
2022-11-05T08:26:49.950Z,32.97
2022-11-05T08:30:52.550Z,34.10
2022-11-05T08:34:53.848Z,32.97
2022-11-05T08:38:55.107Z,32.10
2022-11-05T08:42:58.667Z,29.07
2022-11-05T08:46:59.736Z,27.83
2022-11-05T08:51:01.274Z,28.77
2022-11-05T08:55:02.462Z,27.90
2022-11-05T08:59:03.525Z,24.90
2022-11-05T09:03:06.409Z,26.47
2022-11-05T09:07:07.628Z,28.83
2022-11-05T09:11:08.589Z,27.00
2022-11-05T09:15:10.048Z,30.70
2022-11-05T09:19:11.046Z,27.50
2022-11-05T09:23:16.235Z,27.23
2022-11-05T09:27:17.309Z,30.97
2022-11-05T09:31:18.309Z,29.77
2022-11-05T09:35:19.213Z,29.03
2022-11-05T09:39:20.120Z,29.17
2022-11-05T09:43:31.283Z,27.90
2022-11-05T09:47:30.404Z,30.17
2022-11-05T09:51:31.699Z,24.67
2022-11-05T09:55:41.950Z,19.57
2022-11-05T09:59:50.024Z,18.47
2022-11-05T10:03:54.881Z,16.63
2022-11-05T10:08:22.193Z,17.47
2022-11-05T10:12:33.082Z,17.33
2022-11-05T10:16:40.431Z,15.83
2022-11-05T10:20:42.410Z,18.87
2022-11-05T10:24:47.066Z,18.30
2022-11-05T10:28:50.320Z,16.97
2022-11-05T10:32:58.000Z,15.93
2022-11-05T10:36:59.255Z,15.67
2022-11-05T10:41:10.354Z,13.23
2022-11-05T10:45:21.088Z,10.23
2022-11-05T10:49:31.996Z,9.23
2022-11-05T10:53:35.711Z,10.93
2022-11-05T10:57:39.457Z,11.30
2022-11-05T11:01:40.511Z,9.47
2022-11-05T11:05:41.463Z,9.43
2022-11-05T11:09:46.222Z,8.13
2022-11-05T11:14:11.045Z,9.20
2022-11-05T11:18:32.467Z,8.83
2022-11-05T11:22:33.297Z,8.97
2022-11-05T11:26:37.700Z,8.50
2022-11-05T11:30:38.871Z,8.73
2022-11-05T11:34:41.292Z,7.03
2022-11-05T11:38:43.017Z,6.50
2022-11-05T11:42:51.599Z,7.40
2022-11-05T11:46:56.333Z,8.40
2022-11-05T11:50:58.654Z,7.03
2022-11-05T11:55:12.904Z,6.73
2022-11-05T11:59:40.500Z,6.03
2022-11-05T12:03:42.611Z,5.37
2022-11-05T12:07:53.371Z,4.77
2022-11-05T12:12:13.485Z,4.93
2022-11-05T12:16:18.366Z,4.83
2022-11-05T12:20:32.261Z,3.80
2022-11-05T12:24:45.735Z,2.23
2022-11-05T12:29:17.197Z,3.00
2022-11-05T12:33:03.782Z,2.87
2022-11-05T12:37:11.260Z,3.30
2022-11-05T12:41:28.067Z,3.80
2022-11-05T12:45:41.672Z,4.03
2022-11-05T12:49:59.545Z,3.57
2022-11-05T12:54:22.693Z,4.30
2022-11-05T12:58:27.472Z,2.90
2022-11-05T13:02:50.759Z,3.30
2022-11-05T13:06:54.538Z,2.93
2022-11-05T13:11:02.003Z,2.83
2022-11-05T13:15:07.012Z,3.00
2022-11-05T13:19:26.890Z,3.23
2022-11-05T13:23:48.365Z,3.00
2022-11-05T13:28:13.916Z,5.70
2022-11-05T13:32:30.865Z,3.20
2022-11-05T13:36:56.787Z,2.87
2022-11-05T13:41:07.996Z,3.90
2022-11-05T13:45:39.112Z,3.00
2022-11-05T13:50:07.766Z,3.00
2022-11-05T13:54:21.594Z,3.30
2022-11-05T13:58:44.110Z,3.10
2022-11-05T14:03:13.283Z,3.57
2022-11-05T14:07:21.032Z,3.30
2022-11-05T14:11:28.812Z,3.43
2022-11-05T14:15:31.151Z,3.30
2022-11-05T14:19:38.093Z,5.90
2022-11-05T14:23:42.524Z,5.40
2022-11-05T14:27:46.487Z,4.50
2022-11-05T14:32:08.259Z,5.17
2022-11-05T14:36:21.751Z,3.70
2022-11-05T14:40:35.668Z,4.20
2022-11-05T14:44:40.609Z,3.33
2022-11-05T14:48:45.691Z,3.63
2022-11-05T14:52:51.903Z,3.70
2022-11-05T14:57:17.618Z,3.00
2022-11-05T15:01:40.853Z,3.23
2022-11-05T15:05:51.425Z,2.53
2022-11-05T15:09:58.817Z,3.13
2022-11-05T15:14:12.604Z,3.20
2022-11-05T15:18:29.804Z,3.80
2022-11-05T15:22:34.597Z,2.57
2022-11-05T15:26:39.563Z,3.93
2022-11-05T15:30:55.697Z,3.47
2022-11-05T15:34:56.700Z,4.80
2022-11-05T15:39:29.965Z,5.13
2022-11-05T15:43:17.176Z,5.37
2022-11-05T15:47:23.896Z,8.87
2022-11-05T15:51:25.718Z,6.10
2022-11-05T15:55:27.021Z,7.83
2022-11-05T15:59:29.589Z,5.87
2022-11-05T16:03:52.340Z,6.53
2022-11-05T16:07:53.542Z,6.83
2022-11-05T16:12:19.621Z,6.50
2022-11-05T16:16:24.682Z,7.30
2022-11-05T16:20:31.988Z,7.67
2022-11-05T16:24:33.328Z,7.20
2022-11-05T16:28:34.541Z,12.03
2022-11-05T16:32:35.789Z,8.50
2022-11-05T16:36:36.762Z,10.60
2022-11-05T16:40:37.646Z,14.93
2022-11-05T16:44:38.671Z,19.60
2022-11-05T16:48:39.880Z,13.00
2022-11-05T16:52:40.925Z,11.17
2022-11-05T16:56:43.233Z,14.27
2022-11-05T17:00:45.041Z,14.07
2022-11-05T17:04:46.306Z,16.93
2022-11-05T17:08:48.141Z,12.53
2022-11-05T17:12:49.965Z,12.80
2022-11-05T17:16:51.118Z,8.83
2022-11-05T17:20:54.965Z,8.77
2022-11-05T17:24:56.092Z,8.57
2022-11-05T17:28:57.238Z,10.30
2022-11-05T17:32:58.555Z,11.30
2022-11-05T17:36:59.620Z,7.30
2022-11-05T17:41:00.941Z,7.33
2022-11-05T17:45:01.851Z,6.97
2022-11-05T17:49:03.128Z,6.80
2022-11-05T17:53:04.155Z,9.95
2022-11-05T17:57:06.230Z,21.37
2022-11-05T18:01:10.329Z,20.47
2022-11-05T18:05:11.811Z,23.13
2022-11-05T18:09:13.402Z,24.40
2022-11-05T18:13:15.021Z,21.45
2022-11-05T18:17:16.586Z,15.67
2022-11-05T18:21:17.632Z,21.77
2022-11-05T18:25:18.758Z,20.50
2022-11-05T18:29:20.028Z,17.80
2022-11-05T18:33:21.684Z,45.63
2022-11-05T18:37:22.907Z,15.17
2022-11-05T18:41:24.730Z,8.70
2022-11-05T18:45:29.677Z,9.27
2022-11-05T18:49:28.812Z,9.43
2022-11-05T18:53:29.842Z,13.87
2022-11-05T18:57:32.798Z,18.12
2022-11-05T19:01:33.880Z,15.40
2022-11-05T19:05:36.308Z,14.17
2022-11-05T19:09:38.964Z,9.40
2022-11-05T19:13:40.938Z,10.83
2022-11-05T19:17:42.868Z,9.77
2022-11-05T19:21:44.008Z,10.20
2022-11-05T19:25:44.990Z,9.47
2022-11-05T19:29:46.704Z,8.70
2022-11-05T19:33:49.380Z,9.20
2022-11-05T19:37:52.296Z,10.50
2022-11-05T19:41:54.871Z,9.98
2022-11-05T19:45:56.502Z,12.50
2022-11-05T19:49:57.635Z,13.37
2022-11-05T19:54:00.354Z,10.20
2022-11-05T19:58:01.492Z,9.07
2022-11-05T20:02:03.169Z,10.97
2022-11-05T20:06:08.029Z,6.70
2022-11-05T20:10:09.513Z,8.00
2022-11-05T20:14:10.549Z,8.03
2022-11-05T20:18:11.677Z,7.63
2022-11-05T20:22:12.947Z,7.73
2022-11-05T20:26:14.636Z,8.03
2022-11-05T20:30:16.006Z,6.23
2022-11-05T20:34:16.893Z,12.27
2022-11-05T20:38:18.096Z,13.07
2022-11-05T20:42:19.126Z,18.60
2022-11-05T20:46:22.173Z,12.63
2022-11-05T20:50:23.182Z,13.63
2022-11-05T20:54:24.368Z,14.80
2022-11-05T20:58:25.706Z,13.30
2022-11-05T21:02:26.769Z,16.40
2022-11-05T21:06:28.627Z,16.67
2022-11-05T21:10:29.856Z,17.07
2022-11-05T21:14:30.813Z,14.27
2022-11-05T21:18:33.383Z,14.20
2022-11-05T21:22:34.577Z,13.37
2022-11-05T21:26:35.436Z,12.30
2022-11-05T21:30:37.961Z,12.33
2022-11-05T21:34:39.123Z,13.80
2022-11-05T21:38:40.874Z,15.07
2022-11-05T21:42:42.036Z,15.33
2022-11-05T21:46:43.094Z,18.13
2022-11-05T21:51:02.654Z,20.80
2022-11-05T21:55:22.816Z,19.50
2022-11-05T21:59:43.581Z,23.10
2022-11-05T22:03:45.086Z,24.40
2022-11-05T22:07:46.106Z,24.07
2022-11-05T22:11:47.179Z,22.70
2022-11-05T22:15:53.912Z,21.10
2022-11-05T22:19:55.184Z,23.33
2022-11-05T22:23:56.670Z,23.43
2022-11-05T22:27:57.680Z,22.83
2022-11-05T22:31:58.913Z,20.50
2022-11-05T22:35:59.895Z,20.67
2022-11-05T22:40:00.897Z,18.37
2022-11-05T22:44:03.024Z,16.93
2022-11-05T22:48:06.865Z,18.80
2022-11-05T22:52:07.710Z,17.57
2022-11-05T22:56:12.280Z,17.20
2022-11-05T23:00:16.727Z,18.70
2022-11-05T23:04:17.852Z,19.00
2022-11-05T23:08:37.793Z,20.53
2022-11-05T23:12:38.925Z,17.03
2022-11-05T23:16:59.512Z,17.50
2022-11-05T23:21:22.877Z,17.27
2022-11-05T23:25:23.230Z,16.63
2022-11-05T23:29:26.018Z,17.30
2022-11-05T23:33:28.214Z,18.67
2022-11-05T23:37:49.078Z,17.13
2022-11-05T23:42:10.079Z,17.80
2022-11-05T23:46:29.855Z,15.47
2022-11-05T23:50:34.311Z,17.67
2022-11-05T23:54:34.113Z,17.80
2022-11-05T23:58:36.872Z,16.93
